sensor_id;sensor_type;location;lat;lon;timestamp;temperature;humidity
17284;DHT22;8760;52.248;20.952;2023-04-15T00:01:00;10.90;1.00
17284;DHT22;8760;52.248;20.952;2023-04-15T00:03:27;11.00;1.00
17284;DHT22;8760;52.248;20.952;2023-04-15T00:05:56;10.90;99.90
17284;DHT22;8760;52.248;20.952;2023-04-15T00:08:23;11.00;1.00
17284;DHT22;8760;52.248;20.952;2023-04-15T00:10:50;11.00;1.00
17284;DHT22;8760;52.248;20.952;2023-04-15T00:13:17;11.00;1.00
17284;DHT22;8760;52.248;20.952;2023-04-15T00:15:43;10.90;1.00
17284;DHT22;8760;52.248;20.952;2023-04-15T00:18:10;10.90;99.90
17284;DHT22;8760;52.248;20.952;2023-04-15T00:20:37;10.90;99.90
17284;DHT22;8760;52.248;20.952;2023-04-15T00:23:05;10.90;99.90
17284;DHT22;8760;52.248;20.952;2023-04-15T00:25:32;10.80;99.90
17284;DHT22;8760;52.248;20.952;2023-04-15T00:27:59;10.80;1.00
17284;DHT22;8760;52.248;20.952;2023-04-15T00:30:27;10.80;1.00
17284;DHT22;8760;52.248;20.952;2023-04-15T00:32:54;10.70;1.00
17284;DHT22;8760;52.248;20.952;2023-04-15T00:35:20;10.60;1.00
17284;DHT22;8760;52.248;20.952;2023-04-15T00:37:48;10.60;1.00
17284;DHT22;8760;52.248;20.952;2023-04-15T00:40:18;10.50;1.00
17284;DHT22;8760;52.248;20.952;2023-04-15T00:42:46;10.50;1.00
17284;DHT22;8760;52.248;20.952;2023-04-15T00:45:13;10.50;1.00
17284;DHT22;8760;52.248;20.952;2023-04-15T00:47:42;10.40;1.00
17284;DHT22;8760;52.248;20.952;2023-04-15T00:50:10;10.40;1.00
17284;DHT22;8760;52.248;20.952;2023-04-15T00:52:37;10.40;1.00
17284;DHT22;8760;52.248;20.952;2023-04-15T00:55:05;10.40;1.00
17284;DHT22;8760;52.248;20.952;2023-04-15T00:57:34;10.40;1.00
17284;DHT22;8760;52.248;20.952;2023-04-15T01:00:02;10.40;1.00
17284;DHT22;8760;52.248;20.952;2023-04-15T01:02:30;10.40;1.00
17284;DHT22;8760;52.248;20.952;2023-04-15T01:04:57;10.30;1.00
17284;DHT22;8760;52.248;20.952;2023-04-15T01:07:25;10.30;1.00
17284;DHT22;8760;52.248;20.952;2023-04-15T01:09:52;10.30;1.00
17284;DHT22;8760;52.248;20.952;2023-04-15T01:12:19;10.30;1.00
17284;DHT22;8760;52.248;20.952;2023-04-15T01:14:47;10.30;1.00
17284;DHT22;8760;52.248;20.952;2023-04-15T01:17:14;10.30;1.00
17284;DHT22;8760;52.248;20.952;2023-04-15T01:19:42;10.20;1.00
17284;DHT22;8760;52.248;20.952;2023-04-15T01:22:09;10.30;1.00
17284;DHT22;8760;52.248;20.952;2023-04-15T01:24:36;10.30;1.00
17284;DHT22;8760;52.248;20.952;2023-04-15T01:27:05;10.20;1.00
17284;DHT22;8760;52.248;20.952;2023-04-15T01:29:35;10.20;56.90
17284;DHT22;8760;52.248;20.952;2023-04-15T01:32:02;10.20;58.90
17284;DHT22;8760;52.248;20.952;2023-04-15T01:34:30;10.20;99.90
17284;DHT22;8760;52.248;20.952;2023-04-15T01:36:57;10.10;99.90
17284;DHT22;8760;52.248;20.952;2023-04-15T01:39:23;10.10;99.90
17284;DHT22;8760;52.248;20.952;2023-04-15T01:41:50;10.00;99.90
17284;DHT22;8760;52.248;20.952;2023-04-15T01:44:19;10.00;99.90
17284;DHT22;8760;52.248;20.952;2023-04-15T01:46:46;9.90;99.90
17284;DHT22;8760;52.248;20.952;2023-04-15T01:49:13;9.90;99.90
17284;DHT22;8760;52.248;20.952;2023-04-15T01:51:39;9.90;99.90
17284;DHT22;8760;52.248;20.952;2023-04-15T01:54:06;9.90;99.90
17284;DHT22;8760;52.248;20.952;2023-04-15T01:56:33;9.90;99.90
17284;DHT22;8760;52.248;20.952;2023-04-15T01:59:00;9.80;99.90
17284;DHT22;8760;52.248;20.952;2023-04-15T02:01:29;9.80;99.90
17284;DHT22;8760;52.248;20.952;2023-04-15T02:03:56;9.80;99.90
17284;DHT22;8760;52.248;20.952;2023-04-15T02:06:23;9.80;99.90
17284;DHT22;8760;52.248;20.952;2023-04-15T02:08:50;9.80;99.90
17284;DHT22;8760;52.248;20.952;2023-04-15T02:11:17;9.70;99.90
17284;DHT22;8760;52.248;20.952;2023-04-15T02:13:44;9.70;99.90
17284;DHT22;8760;52.248;20.952;2023-04-15T02:16:15;9.80;99.90
17284;DHT22;8760;52.248;20.952;2023-04-15T02:18:44;9.80;99.90
17284;DHT22;8760;52.248;20.952;2023-04-15T02:21:11;9.70;99.90
17284;DHT22;8760;52.248;20.952;2023-04-15T02:23:38;9.70;99.90
17284;DHT22;8760;52.248;20.952;2023-04-15T02:26:05;9.70;99.90
17284;DHT22;8760;52.248;20.952;2023-04-15T02:28:32;9.70;99.90
17284;DHT22;8760;52.248;20.952;2023-04-15T02:30:59;9.70;99.90
17284;DHT22;8760;52.248;20.952;2023-04-15T02:33:26;9.70;99.90
17284;DHT22;8760;52.248;20.952;2023-04-15T02:35:55;9.70;99.90
17284;DHT22;8760;52.248;20.952;2023-04-15T02:38:21;9.60;99.90
17284;DHT22;8760;52.248;20.952;2023-04-15T02:40:48;9.60;99.90
17284;DHT22;8760;52.248;20.952;2023-04-15T02:43:16;9.70;99.90
17284;DHT22;8760;52.248;20.952;2023-04-15T02:45:43;9.70;99.90
17284;DHT22;8760;52.248;20.952;2023-04-15T02:48:10;9.70;99.90
17284;DHT22;8760;52.248;20.952;2023-04-15T02:50:37;9.70;99.90
17284;DHT22;8760;52.248;20.952;2023-04-15T02:53:06;9.70;99.90
17284;DHT22;8760;52.248;20.952;2023-04-15T02:55:33;9.80;99.90
17284;DHT22;8760;52.248;20.952;2023-04-15T02:58:00;9.70;99.90
17284;DHT22;8760;52.248;20.952;2023-04-15T03:03:49;9.80;99.90
17284;DHT22;8760;52.248;20.952;2023-04-15T03:06:16;9.80;99.90
17284;DHT22;8760;52.248;20.952;2023-04-15T03:08:44;9.80;99.90
17284;DHT22;8760;52.248;20.952;2023-04-15T03:11:11;9.80;99.90
17284;DHT22;8760;52.248;20.952;2023-04-15T03:13:38;9.80;99.90
17284;DHT22;8760;52.248;20.952;2023-04-15T03:16:06;9.80;99.90
17284;DHT22;8760;52.248;20.952;2023-04-15T03:18:33;9.80;99.90
17284;DHT22;8760;52.248;20.952;2023-04-15T03:21:00;9.70;99.90
17284;DHT22;8760;52.248;20.952;2023-04-15T03:23:29;9.80;99.90
17284;DHT22;8760;52.248;20.952;2023-04-15T03:26:00;9.80;99.90
17284;DHT22;8760;52.248;20.952;2023-04-15T03:28:28;9.80;99.90
17284;DHT22;8760;52.248;20.952;2023-04-15T03:30:55;9.80;99.90
17284;DHT22;8760;52.248;20.952;2023-04-15T03:33:22;9.80;99.90
17284;DHT22;8760;52.248;20.952;2023-04-15T03:35:49;9.80;99.90
17284;DHT22;8760;52.248;20.952;2023-04-15T03:38:16;9.80;99.90
17284;DHT22;8760;52.248;20.952;2023-04-15T03:40:45;9.80;99.90
17284;DHT22;8760;52.248;20.952;2023-04-15T03:43:13;9.80;99.90
17284;DHT22;8760;52.248;20.952;2023-04-15T03:45:41;9.80;99.90
17284;DHT22;8760;52.248;20.952;2023-04-15T03:48:08;9.80;99.90
17284;DHT22;8760;52.248;20.952;2023-04-15T03:50:34;9.80;99.90
17284;DHT22;8760;52.248;20.952;2023-04-15T03:53:01;9.80;99.90
17284;DHT22;8760;52.248;20.952;2023-04-15T03:55:28;9.80;99.90
17284;DHT22;8760;52.248;20.952;2023-04-15T03:57:55;9.80;99.90
17284;DHT22;8760;52.248;20.952;2023-04-15T04:00:23;9.80;99.90
17284;DHT22;8760;52.248;20.952;2023-04-15T04:02:50;9.80;99.90
17284;DHT22;8760;52.248;20.952;2023-04-15T04:05:17;9.70;99.90
17284;DHT22;8760;52.248;20.952;2023-04-15T04:07:44;9.80;99.90
17284;DHT22;8760;52.248;20.952;2023-04-15T04:10:11;9.80;99.90
17284;DHT22;8760;52.248;20.952;2023-04-15T04:12:38;9.80;99.90
17284;DHT22;8760;52.248;20.952;2023-04-15T04:15:06;9.80;99.90
17284;DHT22;8760;52.248;20.952;2023-04-15T04:17:35;9.80;99.90
17284;DHT22;8760;52.248;20.952;2023-04-15T04:20:02;9.80;99.90
17284;DHT22;8760;52.248;20.952;2023-04-15T04:22:30;9.80;99.90
17284;DHT22;8760;52.248;20.952;2023-04-15T04:24:57;9.80;99.90
17284;DHT22;8760;52.248;20.952;2023-04-15T04:27:25;9.80;99.90
17284;DHT22;8760;52.248;20.952;2023-04-15T04:29:51;9.80;99.90
17284;DHT22;8760;52.248;20.952;2023-04-15T04:32:18;9.80;99.90
17284;DHT22;8760;52.248;20.952;2023-04-15T04:34:47;9.80;99.90
17284;DHT22;8760;52.248;20.952;2023-04-15T04:37:13;9.80;99.90
17284;DHT22;8760;52.248;20.952;2023-04-15T04:39:40;9.70;99.90
17284;DHT22;8760;52.248;20.952;2023-04-15T04:42:07;9.70;99.90
17284;DHT22;8760;52.248;20.952;2023-04-15T04:44:34;9.70;99.90
17284;DHT22;8760;52.248;20.952;2023-04-15T04:47:01;9.70;99.90
17284;DHT22;8760;52.248;20.952;2023-04-15T04:49:29;9.80;99.90
17284;DHT22;8760;52.248;20.952;2023-04-15T04:51:58;9.70;99.90
17284;DHT22;8760;52.248;20.952;2023-04-15T04:54:25;9.80;99.90
17284;DHT22;8760;52.248;20.952;2023-04-15T04:56:52;9.70;99.90
17284;DHT22;8760;52.248;20.952;2023-04-15T04:59:19;9.70;99.90
17284;DHT22;8760;52.248;20.952;2023-04-15T05:01:46;9.70;99.90
17284;DHT22;8760;52.248;20.952;2023-04-15T05:04:12;9.70;99.90
17284;DHT22;8760;52.248;20.952;2023-04-15T05:06:39;9.70;99.90
17284;DHT22;8760;52.248;20.952;2023-04-15T05:09:08;9.70;99.90
17284;DHT22;8760;52.248;20.952;2023-04-15T05:11:35;9.70;99.90
17284;DHT22;8760;52.248;20.952;2023-04-15T05:14:01;9.70;99.90
17284;DHT22;8760;52.248;20.952;2023-04-15T05:16:28;9.70;99.90
17284;DHT22;8760;52.248;20.952;2023-04-15T05:18:55;9.80;99.90
17284;DHT22;8760;52.248;20.952;2023-04-15T05:21:22;9.70;99.90
17284;DHT22;8760;52.248;20.952;2023-04-15T05:23:49;9.70;99.90
17284;DHT22;8760;52.248;20.952;2023-04-15T05:26:17;9.70;99.90
17284;DHT22;8760;52.248;20.952;2023-04-15T05:28:46;9.70;99.90
17284;DHT22;8760;52.248;20.952;2023-04-15T05:31:14;9.80;99.90
17284;DHT22;8760;52.248;20.952;2023-04-15T05:33:41;9.70;99.90
17284;DHT22;8760;52.248;20.952;2023-04-15T05:36:08;9.70;99.90
17284;DHT22;8760;52.248;20.952;2023-04-15T05:38:35;9.70;99.90
17284;DHT22;8760;52.248;20.952;2023-04-15T05:41:02;9.70;99.90
17284;DHT22;8760;52.248;20.952;2023-04-15T05:43:30;9.80;99.90
17284;DHT22;8760;52.248;20.952;2023-04-15T05:45:57;9.80;99.90
17284;DHT22;8760;52.248;20.952;2023-04-15T05:48:24;9.80;99.90
17284;DHT22;8760;52.248;20.952;2023-04-15T05:50:51;9.80;99.90
17284;DHT22;8760;52.248;20.952;2023-04-15T05:53:18;9.80;99.90
17284;DHT22;8760;52.248;20.952;2023-04-15T05:55:45;9.80;99.90
17284;DHT22;8760;52.248;20.952;2023-04-15T05:58:12;9.70;99.90
17284;DHT22;8760;52.248;20.952;2023-04-15T06:00:40;9.80;99.90
17284;DHT22;8760;52.248;20.952;2023-04-15T06:03:07;9.70;99.90
17284;DHT22;8760;52.248;20.952;2023-04-15T06:05:34;9.70;99.90
17284;DHT22;8760;52.248;20.952;2023-04-15T06:08:01;9.80;99.90
17284;DHT22;8760;52.248;20.952;2023-04-15T06:10:28;9.80;99.90
17284;DHT22;8760;52.248;20.952;2023-04-15T06:12:55;9.80;99.90
17284;DHT22;8760;52.248;20.952;2023-04-15T06:15:22;9.80;99.90
17284;DHT22;8760;52.248;20.952;2023-04-15T06:17:50;9.80;99.90
17284;DHT22;8760;52.248;20.952;2023-04-15T06:20:17;9.80;99.90
17284;DHT22;8760;52.248;20.952;2023-04-15T06:22:44;9.80;99.90
17284;DHT22;8760;52.248;20.952;2023-04-15T06:25:11;9.80;99.90
17284;DHT22;8760;52.248;20.952;2023-04-15T06:27:38;9.80;99.90
17284;DHT22;8760;52.248;20.952;2023-04-15T06:30:06;9.80;99.90
17284;DHT22;8760;52.248;20.952;2023-04-15T06:32:33;9.80;99.90
17284;DHT22;8760;52.248;20.952;2023-04-15T06:35:02;9.70;99.90
17284;DHT22;8760;52.248;20.952;2023-04-15T06:37:30;9.70;99.90
17284;DHT22;8760;52.248;20.952;2023-04-15T06:39:57;9.70;99.90
17284;DHT22;8760;52.248;20.952;2023-04-15T06:42:24;9.70;99.90
17284;DHT22;8760;52.248;20.952;2023-04-15T06:44:51;9.80;99.90
17284;DHT22;8760;52.248;20.952;2023-04-15T06:47:17;9.80;99.90
17284;DHT22;8760;52.248;20.952;2023-04-15T06:49:44;9.70;99.90
17284;DHT22;8760;52.248;20.952;2023-04-15T06:52:12;9.70;99.90
17284;DHT22;8760;52.248;20.952;2023-04-15T06:54:41;9.80;99.90
17284;DHT22;8760;52.248;20.952;2023-04-15T06:57:08;9.70;99.90
17284;DHT22;8760;52.248;20.952;2023-04-15T06:59:35;9.70;99.90
17284;DHT22;8760;52.248;20.952;2023-04-15T07:02:02;9.70;99.90
17284;DHT22;8760;52.248;20.952;2023-04-15T07:04:29;9.80;99.90
17284;DHT22;8760;52.248;20.952;2023-04-15T07:06:56;9.70;99.90
17284;DHT22;8760;52.248;20.952;2023-04-15T07:09:24;9.70;99.90
17284;DHT22;8760;52.248;20.952;2023-04-15T07:11:51;9.70;99.90
17284;DHT22;8760;52.248;20.952;2023-04-15T07:14:18;9.70;99.90
17284;DHT22;8760;52.248;20.952;2023-04-15T07:16:45;9.70;99.90
17284;DHT22;8760;52.248;20.952;2023-04-15T07:19:12;9.70;99.90
17284;DHT22;8760;52.248;20.952;2023-04-15T07:21:39;9.70;99.90
17284;DHT22;8760;52.248;20.952;2023-04-15T07:24:06;9.70;99.90
17284;DHT22;8760;52.248;20.952;2023-04-15T07:26:36;9.80;99.90
17284;DHT22;8760;52.248;20.952;2023-04-15T07:29:03;9.80;99.90
17284;DHT22;8760;52.248;20.952;2023-04-15T07:31:29;9.80;99.90
17284;DHT22;8760;52.248;20.952;2023-04-15T07:33:56;9.80;99.90
17284;DHT22;8760;52.248;20.952;2023-04-15T07:36:24;9.80;99.90
17284;DHT22;8760;52.248;20.952;2023-04-15T07:38:51;9.80;99.90
17284;DHT22;8760;52.248;20.952;2023-04-15T07:41:18;9.90;99.90
17284;DHT22;8760;52.248;20.952;2023-04-15T07:43:47;9.90;99.90
17284;DHT22;8760;52.248;20.952;2023-04-15T07:46:14;9.90;99.90
17284;DHT22;8760;52.248;20.952;2023-04-15T07:48:41;9.80;99.90
17284;DHT22;8760;52.248;20.952;2023-04-15T07:51:08;9.80;99.90
17284;DHT22;8760;52.248;20.952;2023-04-15T07:53:35;9.90;99.90
17284;DHT22;8760;52.248;20.952;2023-04-15T07:56:03;9.90;99.90
17284;DHT22;8760;52.248;20.952;2023-04-15T07:58:30;9.90;99.90
17284;DHT22;8760;52.248;20.952;2023-04-15T08:00:58;9.90;99.90
17284;DHT22;8760;52.248;20.952;2023-04-15T08:03:25;9.90;99.90
17284;DHT22;8760;52.248;20.952;2023-04-15T08:05:52;9.80;99.90
17284;DHT22;8760;52.248;20.952;2023-04-15T08:08:20;9.90;99.90
17284;DHT22;8760;52.248;20.952;2023-04-15T08:10:46;9.90;99.90
17284;DHT22;8760;52.248;20.952;2023-04-15T08:13:13;9.80;99.90
17284;DHT22;8760;52.248;20.952;2023-04-15T08:15:40;9.90;99.90
17284;DHT22;8760;52.248;20.952;2023-04-15T08:18:09;9.90;99.90
17284;DHT22;8760;52.248;20.952;2023-04-15T08:20:36;9.80;99.90
17284;DHT22;8760;52.248;20.952;2023-04-15T08:23:03;9.90;99.90
17284;DHT22;8760;52.248;20.952;2023-04-15T08:25:30;9.90;99.90
17284;DHT22;8760;52.248;20.952;2023-04-15T08:27:57;10.00;99.90
17284;DHT22;8760;52.248;20.952;2023-04-15T08:30:25;10.00;99.90
17284;DHT22;8760;52.248;20.952;2023-04-15T08:32:52;10.00;99.90
17284;DHT22;8760;52.248;20.952;2023-04-15T08:35:20;10.00;99.90
17284;DHT22;8760;52.248;20.952;2023-04-15T08:37:47;10.00;99.90
17284;DHT22;8760;52.248;20.952;2023-04-15T08:40:14;10.00;99.90
17284;DHT22;8760;52.248;20.952;2023-04-15T08:42:44;10.10;99.90
17284;DHT22;8760;52.248;20.952;2023-04-15T08:45:11;10.10;99.90
17284;DHT22;8760;52.248;20.952;2023-04-15T08:47:39;10.20;99.90
17284;DHT22;8760;52.248;20.952;2023-04-15T08:50:08;10.20;99.90
17284;DHT22;8760;52.248;20.952;2023-04-15T08:52:38;10.20;99.90
17284;DHT22;8760;52.248;20.952;2023-04-15T08:55:07;10.20;99.90
17284;DHT22;8760;52.248;20.952;2023-04-15T08:57:35;10.30;99.90
17284;DHT22;8760;52.248;20.952;2023-04-15T09:00:05;10.20;99.90
17284;DHT22;8760;52.248;20.952;2023-04-15T09:02:34;10.20;99.90
17284;DHT22;8760;52.248;20.952;2023-04-15T09:05:01;10.30;99.90
17284;DHT22;8760;52.248;20.952;2023-04-15T09:07:32;10.20;99.90
17284;DHT22;8760;52.248;20.952;2023-04-15T09:10:02;10.30;99.90
17284;DHT22;8760;52.248;20.952;2023-04-15T09:12:29;10.40;99.90
17284;DHT22;8760;52.248;20.952;2023-04-15T09:14:56;10.40;99.90
17284;DHT22;8760;52.248;20.952;2023-04-15T09:17:23;10.40;99.90
17284;DHT22;8760;52.248;20.952;2023-04-15T09:20:07;10.50;99.90
17284;DHT22;8760;52.248;20.952;2023-04-15T09:22:34;10.50;99.90
17284;DHT22;8760;52.248;20.952;2023-04-15T09:25:04;10.50;99.90
17284;DHT22;8760;52.248;20.952;2023-04-15T09:27:52;10.50;99.90
17284;DHT22;8760;52.248;20.952;2023-04-15T09:30:19;10.50;99.90
17284;DHT22;8760;52.248;20.952;2023-04-15T09:32:49;10.60;99.90
17284;DHT22;8760;52.248;20.952;2023-04-15T09:35:17;10.50;99.90
17284;DHT22;8760;52.248;20.952;2023-04-15T09:37:44;10.50;99.90
17284;DHT22;8760;52.248;20.952;2023-04-15T09:40:13;10.50;99.90
17284;DHT22;8760;52.248;20.952;2023-04-15T09:42:53;10.50;99.90
17284;DHT22;8760;52.248;20.952;2023-04-15T09:45:21;10.60;99.90
17284;DHT22;8760;52.248;20.952;2023-04-15T09:47:49;10.60;99.90
17284;DHT22;8760;52.248;20.952;2023-04-15T09:50:18;10.60;99.90
17284;DHT22;8760;52.248;20.952;2023-04-15T09:52:46;10.60;99.90
17284;DHT22;8760;52.248;20.952;2023-04-15T09:55:16;10.60;99.90
17284;DHT22;8760;52.248;20.952;2023-04-15T09:57:45;10.60;99.90
17284;DHT22;8760;52.248;20.952;2023-04-15T10:00:13;10.60;99.90
17284;DHT22;8760;52.248;20.952;2023-04-15T10:02:41;10.60;99.90
17284;DHT22;8760;52.248;20.952;2023-04-15T10:05:09;10.60;99.90
17284;DHT22;8760;52.248;20.952;2023-04-15T10:07:37;10.60;99.90
17284;DHT22;8760;52.248;20.952;2023-04-15T10:10:06;10.60;99.90
17284;DHT22;8760;52.248;20.952;2023-04-15T10:12:36;10.60;99.90
17284;DHT22;8760;52.248;20.952;2023-04-15T10:15:05;10.70;99.90
17284;DHT22;8760;52.248;20.952;2023-04-15T10:17:33;10.70;99.90
17284;DHT22;8760;52.248;20.952;2023-04-15T10:20:01;10.70;99.90
17284;DHT22;8760;52.248;20.952;2023-04-15T10:22:29;10.70;99.90
17284;DHT22;8760;52.248;20.952;2023-04-15T10:24:57;10.80;99.90
17284;DHT22;8760;52.248;20.952;2023-04-15T10:27:26;10.90;99.90
17284;DHT22;8760;52.248;20.952;2023-04-15T10:29:54;10.90;99.90
17284;DHT22;8760;52.248;20.952;2023-04-15T10:32:23;10.90;99.90
17284;DHT22;8760;52.248;20.952;2023-04-15T10:34:51;11.00;99.90
17284;DHT22;8760;52.248;20.952;2023-04-15T10:37:20;10.90;99.90
17284;DHT22;8760;52.248;20.952;2023-04-15T10:39:47;11.00;99.90
17284;DHT22;8760;52.248;20.952;2023-04-15T10:42:17;11.00;99.90
17284;DHT22;8760;52.248;20.952;2023-04-15T10:44:48;11.10;99.90
17284;DHT22;8760;52.248;20.952;2023-04-15T10:47:18;11.10;99.90
17284;DHT22;8760;52.248;20.952;2023-04-15T10:49:47;11.10;99.90
17284;DHT22;8760;52.248;20.952;2023-04-15T10:52:16;11.10;99.90
17284;DHT22;8760;52.248;20.952;2023-04-15T10:54:43;11.10;99.90
17284;DHT22;8760;52.248;20.952;2023-04-15T10:57:16;11.10;99.90
17284;DHT22;8760;52.248;20.952;2023-04-15T11:00:02;11.20;99.90
17284;DHT22;8760;52.248;20.952;2023-04-15T11:02:45;11.20;99.90
17284;DHT22;8760;52.248;20.952;2023-04-15T11:05:13;11.00;99.90
17284;DHT22;8760;52.248;20.952;2023-04-15T11:07:47;11.00;99.90
17284;DHT22;8760;52.248;20.952;2023-04-15T11:13:25;10.90;99.90
17284;DHT22;8760;52.248;20.952;2023-04-15T11:15:58;10.80;99.90
17284;DHT22;8760;52.248;20.952;2023-04-15T11:18:28;10.80;99.90
17284;DHT22;8760;52.248;20.952;2023-04-15T11:20:58;10.80;99.90
17284;DHT22;8760;52.248;20.952;2023-04-15T11:23:34;10.80;99.90
17284;DHT22;8760;52.248;20.952;2023-04-15T11:26:04;11.00;99.90
17284;DHT22;8760;52.248;20.952;2023-04-15T11:28:34;10.90;99.90
17284;DHT22;8760;52.248;20.952;2023-04-15T11:31:09;10.80;99.90
17284;DHT22;8760;52.248;20.952;2023-04-15T11:33:43;10.80;99.90
17284;DHT22;8760;52.248;20.952;2023-04-15T11:36:11;10.80;99.90
17284;DHT22;8760;52.248;20.952;2023-04-15T11:38:42;10.80;99.90
17284;DHT22;8760;52.248;20.952;2023-04-15T11:41:09;10.80;99.90
17284;DHT22;8760;52.248;20.952;2023-04-15T11:43:37;10.80;99.90
17284;DHT22;8760;52.248;20.952;2023-04-15T11:46:03;10.80;99.90
17284;DHT22;8760;52.248;20.952;2023-04-15T11:48:32;10.80;99.90
17284;DHT22;8760;52.248;20.952;2023-04-15T11:51:02;10.80;99.90
17284;DHT22;8760;52.248;20.952;2023-04-15T11:53:37;10.90;99.90
17284;DHT22;8760;52.248;20.952;2023-04-15T11:56:06;10.90;99.90
17284;DHT22;8760;52.248;20.952;2023-04-15T11:58:35;10.90;99.90
17284;DHT22;8760;52.248;20.952;2023-04-15T12:01:09;11.00;99.90
17284;DHT22;8760;52.248;20.952;2023-04-15T12:03:44;11.00;99.90
17284;DHT22;8760;52.248;20.952;2023-04-15T12:06:15;11.20;99.90
17284;DHT22;8760;52.248;20.952;2023-04-15T12:08:57;11.40;99.90
17284;DHT22;8760;52.248;20.952;2023-04-15T12:11:29;11.50;99.90
17284;DHT22;8760;52.248;20.952;2023-04-15T12:14:01;11.70;99.90
17284;DHT22;8760;52.248;20.952;2023-04-15T12:16:29;11.80;99.90
17284;DHT22;8760;52.248;20.952;2023-04-15T12:18:57;11.90;99.90
17284;DHT22;8760;52.248;20.952;2023-04-15T12:21:31;11.90;99.90
17284;DHT22;8760;52.248;20.952;2023-04-15T12:24:02;11.90;99.90
17284;DHT22;8760;52.248;20.952;2023-04-15T12:26:32;11.80;99.90
17284;DHT22;8760;52.248;20.952;2023-04-15T12:29:00;11.70;99.90
17284;DHT22;8760;52.248;20.952;2023-04-15T12:31:28;11.60;99.90
17284;DHT22;8760;52.248;20.952;2023-04-15T12:33:55;11.60;99.90
17284;DHT22;8760;52.248;20.952;2023-04-15T12:36:22;11.60;99.90
17284;DHT22;8760;52.248;20.952;2023-04-15T12:38:51;11.60;99.90
17284;DHT22;8760;52.248;20.952;2023-04-15T12:41:19;11.60;99.90
17284;DHT22;8760;52.248;20.952;2023-04-15T12:43:47;11.70;99.90
17284;DHT22;8760;52.248;20.952;2023-04-15T12:46:13;11.70;99.90
17284;DHT22;8760;52.248;20.952;2023-04-15T12:48:41;11.70;99.90
17284;DHT22;8760;52.248;20.952;2023-04-15T12:51:08;11.80;99.90
17284;DHT22;8760;52.248;20.952;2023-04-15T12:53:35;11.90;99.90
17284;DHT22;8760;52.248;20.952;2023-04-15T12:56:04;12.00;99.90
17284;DHT22;8760;52.248;20.952;2023-04-15T12:58:32;12.00;99.90
17284;DHT22;8760;52.248;20.952;2023-04-15T13:00:59;12.00;99.90
17284;DHT22;8760;52.248;20.952;2023-04-15T13:03:26;12.00;99.90
17284;DHT22;8760;52.248;20.952;2023-04-15T13:05:53;12.00;99.90
17284;DHT22;8760;52.248;20.952;2023-04-15T13:08:20;12.00;99.90
17284;DHT22;8760;52.248;20.952;2023-04-15T13:10:47;12.00;99.90
17284;DHT22;8760;52.248;20.952;2023-04-15T13:13:15;12.00;36.70
17284;DHT22;8760;52.248;20.952;2023-04-15T13:15:42;12.00;15.60
17284;DHT22;8760;52.248;20.952;2023-04-15T13:18:10;12.10;5.20
17284;DHT22;8760;52.248;20.952;2023-04-15T13:20:40;12.30;1.00
17284;DHT22;8760;52.248;20.952;2023-04-15T13:23:12;12.60;1.00
17284;DHT22;8760;52.248;20.952;2023-04-15T13:25:38;12.80;1.00
17284;DHT22;8760;52.248;20.952;2023-04-15T13:28:05;13.10;1.00
17284;DHT22;8760;52.248;20.952;2023-04-15T13:30:36;13.00;99.90
17284;DHT22;8760;52.248;20.952;2023-04-15T13:33:03;12.90;1.00
17284;DHT22;8760;52.248;20.952;2023-04-15T13:35:31;12.80;1.00
17284;DHT22;8760;52.248;20.952;2023-04-15T13:37:58;12.80;1.00
17284;DHT22;8760;52.248;20.952;2023-04-15T13:40:25;12.70;1.00
17284;DHT22;8760;52.248;20.952;2023-04-15T13:42:52;12.70;1.00
17284;DHT22;8760;52.248;20.952;2023-04-15T13:45:19;12.50;1.00
17284;DHT22;8760;52.248;20.952;2023-04-15T13:47:47;12.40;1.00
17284;DHT22;8760;52.248;20.952;2023-04-15T13:50:14;12.40;1.00
17284;DHT22;8760;52.248;20.952;2023-04-15T13:52:41;12.40;1.00
17284;DHT22;8760;52.248;20.952;2023-04-15T13:55:09;12.60;1.00
17284;DHT22;8760;52.248;20.952;2023-04-15T13:57:36;12.50;99.90
17284;DHT22;8760;52.248;20.952;2023-04-15T14:00:04;12.30;99.00
17284;DHT22;8760;52.248;20.952;2023-04-15T14:02:31;12.30;99.90
17284;DHT22;8760;52.248;20.952;2023-04-15T14:04:59;12.20;1.00
17284;DHT22;8760;52.248;20.952;2023-04-15T14:07:28;12.10;1.00
17284;DHT22;8760;52.248;20.952;2023-04-15T14:09:55;12.10;99.90
17284;DHT22;8760;52.248;20.952;2023-04-15T14:12:22;11.90;99.90
17284;DHT22;8760;52.248;20.952;2023-04-15T14:14:49;12.00;1.00
17284;DHT22;8760;52.248;20.952;2023-04-15T14:17:16;12.00;99.90
17284;DHT22;8760;52.248;20.952;2023-04-15T14:19:43;11.80;1.00
17284;DHT22;8760;52.248;20.952;2023-04-15T14:22:11;11.80;1.00
17284;DHT22;8760;52.248;20.952;2023-04-15T14:24:38;11.60;99.90
17284;DHT22;8760;52.248;20.952;2023-04-15T14:27:05;11.70;99.90
17284;DHT22;8760;52.248;20.952;2023-04-15T14:29:33;11.80;1.00
17284;DHT22;8760;52.248;20.952;2023-04-15T14:32:00;11.90;1.00
17284;DHT22;8760;52.248;20.952;2023-04-15T14:34:27;12.00;99.90
17284;DHT22;8760;52.248;20.952;2023-04-15T14:36:53;12.30;1.00
17284;DHT22;8760;52.248;20.952;2023-04-15T14:39:22;12.60;1.00
17284;DHT22;8760;52.248;20.952;2023-04-15T14:41:49;12.80;79.10
17284;DHT22;8760;52.248;20.952;2023-04-15T14:44:16;12.70;1.00
17284;DHT22;8760;52.248;20.952;2023-04-15T14:46:42;12.80;1.00
17284;DHT22;8760;52.248;20.952;2023-04-15T14:49:09;12.60;99.90
17284;DHT22;8760;52.248;20.952;2023-04-15T14:51:36;12.40;1.00
17284;DHT22;8760;52.248;20.952;2023-04-15T14:54:03;12.30;74.30
17284;DHT22;8760;52.248;20.952;2023-04-15T14:56:31;12.30;1.00
17284;DHT22;8760;52.248;20.952;2023-04-15T14:58:58;12.20;23.60
17284;DHT22;8760;52.248;20.952;2023-04-15T15:01:25;12.20;99.90
17284;DHT22;8760;52.248;20.952;2023-04-15T15:03:53;12.20;99.90
17284;DHT22;8760;52.248;20.952;2023-04-15T15:06:20;12.30;1.00
17284;DHT22;8760;52.248;20.952;2023-04-15T15:08:47;12.40;29.80
17284;DHT22;8760;52.248;20.952;2023-04-15T15:11:15;12.60;52.30
17284;DHT22;8760;52.248;20.952;2023-04-15T15:13:43;12.50;1.00
17284;DHT22;8760;52.248;20.952;2023-04-15T15:16:10;12.50;63.30
17284;DHT22;8760;52.248;20.952;2023-04-15T15:18:37;12.50;1.00
17284;DHT22;8760;52.248;20.952;2023-04-15T15:21:04;12.60;1.00
17284;DHT22;8760;52.248;20.952;2023-04-15T15:23:31;12.70;99.90
17284;DHT22;8760;52.248;20.952;2023-04-15T15:25:58;12.80;99.90
17284;DHT22;8760;52.248;20.952;2023-04-15T15:28:25;13.10;1.00
17284;DHT22;8760;52.248;20.952;2023-04-15T15:30:53;13.10;1.00
17284;DHT22;8760;52.248;20.952;2023-04-15T15:33:20;13.00;1.00
17284;DHT22;8760;52.248;20.952;2023-04-15T15:35:47;12.90;99.90
17284;DHT22;8760;52.248;20.952;2023-04-15T15:38:14;12.80;1.00
17284;DHT22;8760;52.248;20.952;2023-04-15T15:40:41;12.80;99.90
17284;DHT22;8760;52.248;20.952;2023-04-15T15:43:08;12.80;1.00
17284;DHT22;8760;52.248;20.952;2023-04-15T15:45:35;12.80;1.00
17284;DHT22;8760;52.248;20.952;2023-04-15T15:48:04;12.70;1.00
17284;DHT22;8760;52.248;20.952;2023-04-15T15:50:31;12.60;1.00